sensor_id;sensor_type;location;lat;lon;timestamp;temperature;humidity
15105;DHT22;7653;48.994;9.212;2023-03-03T00:01:15;3.50;46.00
15105;DHT22;7653;48.994;9.212;2023-03-03T00:03:41;3.50;45.90
15105;DHT22;7653;48.994;9.212;2023-03-03T00:06:09;3.60;46.00
15105;DHT22;7653;48.994;9.212;2023-03-03T00:08:36;3.50;45.90
15105;DHT22;7653;48.994;9.212;2023-03-03T00:11:02;3.50;46.60
15105;DHT22;7653;48.994;9.212;2023-03-03T00:13:31;3.50;45.90
15105;DHT22;7653;48.994;9.212;2023-03-03T00:16:15;3.50;45.90
15105;DHT22;7653;48.994;9.212;2023-03-03T00:18:44;3.50;45.90
15105;DHT22;7653;48.994;9.212;2023-03-03T00:21:29;3.40;45.90
15105;DHT22;7653;48.994;9.212;2023-03-03T00:24:23;3.30;45.80
15105;DHT22;7653;48.994;9.212;2023-03-03T00:26:59;3.30;45.70
15105;DHT22;7653;48.994;9.212;2023-03-03T00:34:41;3.20;46.90
15105;DHT22;7653;48.994;9.212;2023-03-03T00:40:10;3.00;48.80
15105;DHT22;7653;48.994;9.212;2023-03-03T00:42:37;2.90;47.90
15105;DHT22;7653;48.994;9.212;2023-03-03T00:45:26;2.60;47.30
15105;DHT22;7653;48.994;9.212;2023-03-03T00:47:52;2.60;49.10
15105;DHT22;7653;48.994;9.212;2023-03-03T00:50:34;2.40;49.80
15105;DHT22;7653;48.994;9.212;2023-03-03T00:53:10;2.30;49.80
15105;DHT22;7653;48.994;9.212;2023-03-03T00:55:35;2.30;50.60
15105;DHT22;7653;48.994;9.212;2023-03-03T00:58:02;2.10;50.10
15105;DHT22;7653;48.994;9.212;2023-03-03T01:00:28;1.90;49.30
15105;DHT22;7653;48.994;9.212;2023-03-03T01:02:53;1.70;50.40
15105;DHT22;7653;48.994;9.212;2023-03-03T01:05:19;1.80;52.20
15105;DHT22;7653;48.994;9.212;2023-03-03T01:07:45;1.90;51.50
15105;DHT22;7653;48.994;9.212;2023-03-03T01:10:11;1.90;50.70
15105;DHT22;7653;48.994;9.212;2023-03-03T01:12:37;1.80;49.90
15105;DHT22;7653;48.994;9.212;2023-03-03T01:15:07;1.70;50.50
15105;DHT22;7653;48.994;9.212;2023-03-03T01:17:33;1.50;50.50
15105;DHT22;7653;48.994;9.212;2023-03-03T01:20:00;1.40;53.60
15105;DHT22;7653;48.994;9.212;2023-03-03T01:22:25;1.10;54.40
15105;DHT22;7653;48.994;9.212;2023-03-03T01:24:51;1.30;55.50
15105;DHT22;7653;48.994;9.212;2023-03-03T01:27:17;1.40;55.00
15105;DHT22;7653;48.994;9.212;2023-03-03T01:29:42;1.50;56.00
15105;DHT22;7653;48.994;9.212;2023-03-03T01:32:08;1.70;55.60
15105;DHT22;7653;48.994;9.212;2023-03-03T01:34:33;1.70;55.00
15105;DHT22;7653;48.994;9.212;2023-03-03T01:36:59;1.70;55.00
15105;DHT22;7653;48.994;9.212;2023-03-03T01:39:25;1.70;56.50
15105;DHT22;7653;48.994;9.212;2023-03-03T01:41:51;1.80;55.80
15105;DHT22;7653;48.994;9.212;2023-03-03T01:44:17;1.80;55.90
15105;DHT22;7653;48.994;9.212;2023-03-03T01:49:27;1.40;53.70
15105;DHT22;7653;48.994;9.212;2023-03-03T01:51:57;1.40;53.60
15105;DHT22;7653;48.994;9.212;2023-03-03T01:54:28;1.40;53.60
15105;DHT22;7653;48.994;9.212;2023-03-03T01:56:59;1.40;53.60
15105;DHT22;7653;48.994;9.212;2023-03-03T01:59:35;1.40;54.80
15105;DHT22;7653;48.994;9.212;2023-03-03T02:02:03;1.30;53.60
15105;DHT22;7653;48.994;9.212;2023-03-03T02:04:28;1.20;53.50
15105;DHT22;7653;48.994;9.212;2023-03-03T02:07:00;1.20;53.50
15105;DHT22;7653;48.994;9.212;2023-03-03T02:12:06;0.70;53.50
15105;DHT22;7653;48.994;9.212;2023-03-03T02:14:32;0.80;55.30
15105;DHT22;7653;48.994;9.212;2023-03-03T02:16:58;0.70;56.20
15105;DHT22;7653;48.994;9.212;2023-03-03T02:19:41;0.70;56.90
15105;DHT22;7653;48.994;9.212;2023-03-03T02:22:08;0.70;57.50
15105;DHT22;7653;48.994;9.212;2023-03-03T02:24:48;0.50;56.00
15105;DHT22;7653;48.994;9.212;2023-03-03T02:27:15;0.40;56.50
15105;DHT22;7653;48.994;9.212;2023-03-03T02:29:41;0.20;57.40
15105;DHT22;7653;48.994;9.212;2023-03-03T02:32:06;0.30;58.90
15105;DHT22;7653;48.994;9.212;2023-03-03T02:34:45;0.20;59.30
15105;DHT22;7653;48.994;9.212;2023-03-03T02:37:11;0.10;60.60
15105;DHT22;7653;48.994;9.212;2023-03-03T02:39:36;0.20;61.80
15105;DHT22;7653;48.994;9.212;2023-03-03T02:42:26;0.30;62.00
15105;DHT22;7653;48.994;9.212;2023-03-03T02:44:53;0.30;62.00
15105;DHT22;7653;48.994;9.212;2023-03-03T02:47:19;0.30;61.00
15105;DHT22;7653;48.994;9.212;2023-03-03T02:49:45;0.10;61.80
15105;DHT22;7653;48.994;9.212;2023-03-03T02:52:11;0.10;61.80
15105;DHT22;7653;48.994;9.212;2023-03-03T02:54:37;0.00;61.70
15105;DHT22;7653;48.994;9.212;2023-03-03T02:57:03;0.00;62.40
15105;DHT22;7653;48.994;9.212;2023-03-03T02:59:29;0.00;61.70
15105;DHT22;7653;48.994;9.212;2023-03-03T03:01:55;0.00;62.40
15105;DHT22;7653;48.994;9.212;2023-03-03T03:04:23;0.00;61.70
15105;DHT22;7653;48.994;9.212;2023-03-03T03:06:49;-0.20;62.20
15105;DHT22;7653;48.994;9.212;2023-03-03T03:09:16;-0.20;61.50
15105;DHT22;7653;48.994;9.212;2023-03-03T03:11:43;-0.30;61.60
15105;DHT22;7653;48.994;9.212;2023-03-03T03:14:10;-0.30;62.90
15105;DHT22;7653;48.994;9.212;2023-03-03T03:16:36;-0.30;61.40
15105;DHT22;7653;48.994;9.212;2023-03-03T03:19:03;-0.20;61.50
15105;DHT22;7653;48.994;9.212;2023-03-03T03:21:28;-0.10;61.70
15105;DHT22;7653;48.994;9.212;2023-03-03T03:23:54;-0.20;61.50
15105;DHT22;7653;48.994;9.212;2023-03-03T03:26:20;-0.30;61.40
15105;DHT22;7653;48.994;9.212;2023-03-03T03:28:50;-0.20;61.50
15105;DHT22;7653;48.994;9.212;2023-03-03T03:31:17;-0.30;61.50
15105;DHT22;7653;48.994;9.212;2023-03-03T03:33:43;-0.40;61.80
15105;DHT22;7653;48.994;9.212;2023-03-03T03:36:09;-0.40;63.40
15105;DHT22;7653;48.994;9.212;2023-03-03T03:38:36;-0.30;63.10
15105;DHT22;7653;48.994;9.212;2023-03-03T03:41:03;-0.40;62.60
15105;DHT22;7653;48.994;9.212;2023-03-03T03:43:29;-0.50;63.40
15105;DHT22;7653;48.994;9.212;2023-03-03T03:45:55;-0.50;63.30
15105;DHT22;7653;48.994;9.212;2023-03-03T03:48:21;-0.40;63.80
15105;DHT22;7653;48.994;9.212;2023-03-03T03:50:47;-0.40;63.20
15105;DHT22;7653;48.994;9.212;2023-03-03T03:53:13;-0.40;62.10
15105;DHT22;7653;48.994;9.212;2023-03-03T03:55:39;-0.40;61.30
15105;DHT22;7653;48.994;9.212;2023-03-03T03:58:05;-0.40;61.30
15105;DHT22;7653;48.994;9.212;2023-03-03T04:00:30;-0.40;61.50
15105;DHT22;7653;48.994;9.212;2023-03-03T04:02:56;-0.50;61.40
15105;DHT22;7653;48.994;9.212;2023-03-03T04:05:22;-0.60;61.20
15105;DHT22;7653;48.994;9.212;2023-03-03T04:07:48;-0.70;64.00
15105;DHT22;7653;48.994;9.212;2023-03-03T04:10:13;-0.70;64.60
15105;DHT22;7653;48.994;9.212;2023-03-03T04:12:39;-0.70;65.80
15105;DHT22;7653;48.994;9.212;2023-03-03T04:15:07;-0.60;68.40
15105;DHT22;7653;48.994;9.212;2023-03-03T04:17:33;-0.50;69.10
15105;DHT22;7653;48.994;9.212;2023-03-03T04:19:59;-0.40;68.70
15105;DHT22;7653;48.994;9.212;2023-03-03T04:22:25;-0.50;66.30
15105;DHT22;7653;48.994;9.212;2023-03-03T04:24:51;-0.50;67.70
15105;DHT22;7653;48.994;9.212;2023-03-03T04:27:16;-0.30;67.40
15105;DHT22;7653;48.994;9.212;2023-03-03T04:29:42;-0.30;66.40
15105;DHT22;7653;48.994;9.212;2023-03-03T04:32:08;-0.30;67.00
15105;DHT22;7653;48.994;9.212;2023-03-03T04:34:34;-0.20;69.60
15105;DHT22;7653;48.994;9.212;2023-03-03T04:36:59;-0.20;69.30
15105;DHT22;7653;48.994;9.212;2023-03-03T04:39:27;-0.10;69.00
15105;DHT22;7653;48.994;9.212;2023-03-03T04:41:53;0.00;69.30
15105;DHT22;7653;48.994;9.212;2023-03-03T04:44:18;0.10;68.40
15105;DHT22;7653;48.994;9.212;2023-03-03T04:46:44;0.20;68.70
15105;DHT22;7653;48.994;9.212;2023-03-03T04:49:10;0.20;67.40
15105;DHT22;7653;48.994;9.212;2023-03-03T04:51:35;0.20;68.10
15105;DHT22;7653;48.994;9.212;2023-03-03T04:54:01;0.20;69.00
15105;DHT22;7653;48.994;9.212;2023-03-03T04:56:28;0.30;67.90
15105;DHT22;7653;48.994;9.212;2023-03-03T04:58:54;0.40;68.50
15105;DHT22;7653;48.994;9.212;2023-03-03T05:01:20;0.40;67.10
15105;DHT22;7653;48.994;9.212;2023-03-03T05:03:45;0.60;68.00
15105;DHT22;7653;48.994;9.212;2023-03-03T05:06:11;0.50;67.70
15105;DHT22;7653;48.994;9.212;2023-03-03T05:08:37;0.50;67.60
15105;DHT22;7653;48.994;9.212;2023-03-03T05:11:02;0.40;66.80
15105;DHT22;7653;48.994;9.212;2023-03-03T05:13:28;0.20;67.90
15105;DHT22;7653;48.994;9.212;2023-03-03T05:15:55;0.10;70.10
15105;DHT22;7653;48.994;9.212;2023-03-03T05:18:25;0.10;71.10
15105;DHT22;7653;48.994;9.212;2023-03-03T05:20:51;0.40;71.40
15105;DHT22;7653;48.994;9.212;2023-03-03T05:23:18;0.60;71.60
15105;DHT22;7653;48.994;9.212;2023-03-03T05:25:45;0.70;70.70
15105;DHT22;7653;48.994;9.212;2023-03-03T05:28:11;0.70;69.80
15105;DHT22;7653;48.994;9.212;2023-03-03T05:30:37;0.60;69.30
15105;DHT22;7653;48.994;9.212;2023-03-03T05:33:04;0.70;68.80
15105;DHT22;7653;48.994;9.212;2023-03-03T05:35:30;0.80;69.60
15105;DHT22;7653;48.994;9.212;2023-03-03T05:37:56;0.80;69.10
15105;DHT22;7653;48.994;9.212;2023-03-03T05:40:23;0.80;68.80
15105;DHT22;7653;48.994;9.212;2023-03-03T05:42:49;0.90;69.90
15105;DHT22;7653;48.994;9.212;2023-03-03T05:45:15;0.90;70.10
15105;DHT22;7653;48.994;9.212;2023-03-03T05:47:40;1.00;69.50
15105;DHT22;7653;48.994;9.212;2023-03-03T05:50:06;0.90;68.90
15105;DHT22;7653;48.994;9.212;2023-03-03T05:52:32;1.00;69.10
15105;DHT22;7653;48.994;9.212;2023-03-03T05:54:57;0.90;68.00
15105;DHT22;7653;48.994;9.212;2023-03-03T05:57:23;0.80;68.30
15105;DHT22;7653;48.994;9.212;2023-03-03T05:59:49;0.90;70.10
15105;DHT22;7653;48.994;9.212;2023-03-03T06:02:14;1.10;69.70
15105;DHT22;7653;48.994;9.212;2023-03-03T06:04:40;1.20;68.00
15105;DHT22;7653;48.994;9.212;2023-03-03T06:07:06;1.20;65.90
15105;DHT22;7653;48.994;9.212;2023-03-03T06:09:32;0.80;66.60
15105;DHT22;7653;48.994;9.212;2023-03-03T06:11:57;0.80;68.50
15105;DHT22;7653;48.994;9.212;2023-03-03T06:14:23;0.80;69.20
15105;DHT22;7653;48.994;9.212;2023-03-03T06:16:49;0.80;70.20
15105;DHT22;7653;48.994;9.212;2023-03-03T06:19:15;0.90;70.80
15105;DHT22;7653;48.994;9.212;2023-03-03T06:21:41;0.80;70.70
15105;DHT22;7653;48.994;9.212;2023-03-03T06:24:07;0.80;71.70
15105;DHT22;7653;48.994;9.212;2023-03-03T06:26:33;0.80;71.70
15105;DHT22;7653;48.994;9.212;2023-03-03T06:28:59;0.90;73.50
15105;DHT22;7653;48.994;9.212;2023-03-03T06:31:25;1.10;73.00
15105;DHT22;7653;48.994;9.212;2023-03-03T06:33:51;1.20;72.00
15105;DHT22;7653;48.994;9.212;2023-03-03T06:36:18;1.30;70.20
15105;DHT22;7653;48.994;9.212;2023-03-03T06:38:44;1.40;68.40
15105;DHT22;7653;48.994;9.212;2023-03-03T06:41:10;1.20;67.40
15105;DHT22;7653;48.994;9.212;2023-03-03T06:43:36;1.00;68.70
15105;DHT22;7653;48.994;9.212;2023-03-03T06:46:05;1.10;71.30
15105;DHT22;7653;48.994;9.212;2023-03-03T06:48:31;1.30;71.90
15105;DHT22;7653;48.994;9.212;2023-03-03T06:51:02;1.30;69.80
15105;DHT22;7653;48.994;9.212;2023-03-03T06:53:36;1.30;70.10
15105;DHT22;7653;48.994;9.212;2023-03-03T06:56:04;1.40;69.80
15105;DHT22;7653;48.994;9.212;2023-03-03T06:58:33;1.40;68.40
15105;DHT22;7653;48.994;9.212;2023-03-03T07:01:02;1.50;67.70
15105;DHT22;7653;48.994;9.212;2023-03-03T07:03:34;1.50;67.20
15105;DHT22;7653;48.994;9.212;2023-03-03T07:06:00;1.70;67.30
15105;DHT22;7653;48.994;9.212;2023-03-03T07:08:29;1.90;66.40
15105;DHT22;7653;48.994;9.212;2023-03-03T07:10:56;1.90;63.40
15105;DHT22;7653;48.994;9.212;2023-03-03T07:13:26;1.70;59.50
15105;DHT22;7653;48.994;9.212;2023-03-03T07:15:53;1.60;62.20
15105;DHT22;7653;48.994;9.212;2023-03-03T07:18:31;1.70;63.20
15105;DHT22;7653;48.994;9.212;2023-03-03T07:20:58;2.00;61.60
15105;DHT22;7653;48.994;9.212;2023-03-03T07:23:52;2.00;58.00
15105;DHT22;7653;48.994;9.212;2023-03-03T07:26:29;2.00;59.50
15105;DHT22;7653;48.994;9.212;2023-03-03T07:31:47;1.80;58.70
15105;DHT22;7653;48.994;9.212;2023-03-03T07:34:24;1.90;59.40
15105;DHT22;7653;48.994;9.212;2023-03-03T07:36:58;2.10;60.00
15105;DHT22;7653;48.994;9.212;2023-03-03T07:39:39;2.00;56.60
15105;DHT22;7653;48.994;9.212;2023-03-03T07:44:39;2.20;55.30
15105;DHT22;7653;48.994;9.212;2023-03-03T07:47:37;2.30;54.40
15105;DHT22;7653;48.994;9.212;2023-03-03T07:50:17;2.30;53.70
15105;DHT22;7653;48.994;9.212;2023-03-03T07:55:35;2.40;52.60
15105;DHT22;7653;48.994;9.212;2023-03-03T07:58:21;2.60;51.60
15105;DHT22;7653;48.994;9.212;2023-03-03T08:03:50;2.70;48.70
15105;DHT22;7653;48.994;9.212;2023-03-03T08:06:36;2.80;48.60
15105;DHT22;7653;48.994;9.212;2023-03-03T08:14:15;3.00;44.40
15105;DHT22;7653;48.994;9.212;2023-03-03T08:16:43;3.10;43.10
15105;DHT22;7653;48.994;9.212;2023-03-03T08:19:10;3.30;42.80
15105;DHT22;7653;48.994;9.212;2023-03-03T08:21:36;3.40;42.20
15105;DHT22;7653;48.994;9.212;2023-03-03T08:24:02;3.40;40.60
15105;DHT22;7653;48.994;9.212;2023-03-03T08:26:27;3.50;40.10
15105;DHT22;7653;48.994;9.212;2023-03-03T08:28:53;3.40;39.70
15105;DHT22;7653;48.994;9.212;2023-03-03T08:31:20;3.50;39.80
15105;DHT22;7653;48.994;9.212;2023-03-03T08:33:46;3.50;38.90
15105;DHT22;7653;48.994;9.212;2023-03-03T08:36:12;3.50;38.60
15105;DHT22;7653;48.994;9.212;2023-03-03T08:38:39;3.60;38.00
15105;DHT22;7653;48.994;9.212;2023-03-03T08:41:05;3.60;38.70
15105;DHT22;7653;48.994;9.212;2023-03-03T08:43:31;3.60;37.60
15105;DHT22;7653;48.994;9.212;2023-03-03T08:45:58;3.80;36.70
15105;DHT22;7653;48.994;9.212;2023-03-03T08:48:25;3.70;36.30
15105;DHT22;7653;48.994;9.212;2023-03-03T08:50:52;3.80;36.40
15105;DHT22;7653;48.994;9.212;2023-03-03T08:53:18;3.90;36.50
15105;DHT22;7653;48.994;9.212;2023-03-03T08:55:44;3.90;36.50
15105;DHT22;7653;48.994;9.212;2023-03-03T08:58:10;4.10;36.00
15105;DHT22;7653;48.994;9.212;2023-03-03T09:00:36;4.10;35.20
15105;DHT22;7653;48.994;9.212;2023-03-03T09:03:03;4.10;35.60
15105;DHT22;7653;48.994;9.212;2023-03-03T09:05:31;4.20;35.20
15105;DHT22;7653;48.994;9.212;2023-03-03T09:07:57;4.30;34.30
15105;DHT22;7653;48.994;9.212;2023-03-03T09:10:25;4.40;33.70
15105;DHT22;7653;48.994;9.212;2023-03-03T09:12:57;4.40;33.40
15105;DHT22;7653;48.994;9.212;2023-03-03T09:15:28;4.50;33.90
15105;DHT22;7653;48.994;9.212;2023-03-03T09:20:40;4.60;34.10
15105;DHT22;7653;48.994;9.212;2023-03-03T09:28:47;5.10;32.50
15105;DHT22;7653;48.994;9.212;2023-03-03T09:36:50;5.20;31.90
15105;DHT22;7653;48.994;9.212;2023-03-03T10:06:54;5.90;28.60
15105;DHT22;7653;48.994;9.212;2023-03-03T10:20:16;6.00;26.70
15105;DHT22;7653;48.994;9.212;2023-03-03T10:25:38;6.30;25.80
15105;DHT22;7653;48.994;9.212;2023-03-03T10:28:23;6.30;25.30
15105;DHT22;7653;48.994;9.212;2023-03-03T10:36:49;6.70;22.70
15105;DHT22;7653;48.994;9.212;2023-03-03T10:39:24;6.80;21.90
15105;DHT22;7653;48.994;9.212;2023-03-03T10:45:12;6.90;25.30
15105;DHT22;7653;48.994;9.212;2023-03-03T10:56:14;7.20;21.00
15105;DHT22;7653;48.994;9.212;2023-03-03T11:04:41;7.20;21.90
15105;DHT22;7653;48.994;9.212;2023-03-03T11:10:33;7.70;19.10
15105;DHT22;7653;48.994;9.212;2023-03-03T11:31:21;8.00;20.60
15105;DHT22;7653;48.994;9.212;2023-03-03T11:34:09;8.00;21.20
15105;DHT22;7653;48.994;9.212;2023-03-03T11:39:11;7.70;21.10
15105;DHT22;7653;48.994;9.212;2023-03-03T11:58:04;8.20;20.30
15105;DHT22;7653;48.994;9.212;2023-03-03T12:13:59;8.80;18.60
15105;DHT22;7653;48.994;9.212;2023-03-03T12:22:47;9.10;17.90
15105;DHT22;7653;48.994;9.212;2023-03-03T12:28:21;9.40;17.50
15105;DHT22;7653;48.994;9.212;2023-03-03T12:41:59;9.50;15.90
15105;DHT22;7653;48.994;9.212;2023-03-03T12:47:44;9.50;15.70
15105;DHT22;7653;48.994;9.212;2023-03-03T13:04:52;9.50;14.70
15105;DHT22;7653;48.994;9.212;2023-03-03T13:21:19;9.60;16.20
15105;DHT22;7653;48.994;9.212;2023-03-03T13:29:22;10.70;14.10
15105;DHT22;7653;48.994;9.212;2023-03-03T13:31:53;10.30;14.20
15105;DHT22;7653;48.994;9.212;2023-03-03T13:37:34;11.10;12.90
15105;DHT22;7653;48.994;9.212;2023-03-03T13:40:16;11.10;12.70
15105;DHT22;7653;48.994;9.212;2023-03-03T13:43:04;10.30;14.50
15105;DHT22;7653;48.994;9.212;2023-03-03T13:51:25;11.60;11.10
15105;DHT22;7653;48.994;9.212;2023-03-03T13:54:08;11.70;11.80
15105;DHT22;7653;48.994;9.212;2023-03-03T13:59:48;12.30;10.10
15105;DHT22;7653;48.994;9.212;2023-03-03T14:08:04;12.90;9.00
15105;DHT22;7653;48.994;9.212;2023-03-03T14:10:36;13.30;9.30
15105;DHT22;7653;48.994;9.212;2023-03-03T14:13:22;13.80;8.40
15105;DHT22;7653;48.994;9.212;2023-03-03T14:16:06;13.50;8.20
15105;DHT22;7653;48.994;9.212;2023-03-03T14:18:56;12.90;7.70
15105;DHT22;7653;48.994;9.212;2023-03-03T14:21:39;12.60;8.40
15105;DHT22;7653;48.994;9.212;2023-03-03T14:24:18;12.20;9.90
15105;DHT22;7653;48.994;9.212;2023-03-03T14:26:49;12.40;10.10
15105;DHT22;7653;48.994;9.212;2023-03-03T14:31:43;11.70;11.20
15105;DHT22;7653;48.994;9.212;2023-03-03T14:34:27;11.80;10.40
15105;DHT22;7653;48.994;9.212;2023-03-03T14:37:07;11.80;9.70
15105;DHT22;7653;48.994;9.212;2023-03-03T14:39:44;11.80;10.30
15105;DHT22;7653;48.994;9.212;2023-03-03T14:44:56;13.00;9.10
15105;DHT22;7653;48.994;9.212;2023-03-03T14:47:26;12.90;8.40
15105;DHT22;7653;48.994;9.212;2023-03-03T14:49:56;12.50;9.50
15105;DHT22;7653;48.994;9.212;2023-03-03T14:52:32;12.40;9.40
15105;DHT22;7653;48.994;9.212;2023-03-03T14:55:00;12.70;8.90
15105;DHT22;7653;48.994;9.212;2023-03-03T15:03:22;12.60;9.90
15105;DHT22;7653;48.994;9.212;2023-03-03T15:05:51;12.50;9.50
15105;DHT22;7653;48.994;9.212;2023-03-03T15:08:29;12.20;10.30
15105;DHT22;7653;48.994;9.212;2023-03-03T15:13:39;12.10;11.10
15105;DHT22;7653;48.994;9.212;2023-03-03T15:21:30;12.20;11.40
15105;DHT22;7653;48.994;9.212;2023-03-03T15:24:44;12.70;10.50
15105;DHT22;7653;48.994;9.212;2023-03-03T15:27:04;12.80;9.30
15105;DHT22;7653;48.994;9.212;2023-03-03T15:34:39;11.90;9.60
15105;DHT22;7653;48.994;9.212;2023-03-03T15:42:47;11.60;11.10
15105;DHT22;7653;48.994;9.212;2023-03-03T15:53:16;11.30;11.50
15105;DHT22;7653;48.994;9.212;2023-03-03T16:01:33;10.60;12.60
15105;DHT22;7653;48.994;9.212;2023-03-03T16:06:48;10.70;12.60
15105;DHT22;7653;48.994;9.212;2023-03-03T16:12:36;10.90;12.70
15105;DHT22;7653;48.994;9.212;2023-03-03T16:26:00;10.70;13.50
15105;DHT22;7653;48.994;9.212;2023-03-03T16:34:06;10.70;14.40
15105;DHT22;7653;48.994;9.212;2023-03-03T16:47:37;11.20;13.10
15105;DHT22;7653;48.994;9.212;2023-03-03T17:01:49;10.30;14.50
15105;DHT22;7653;48.994;9.212;2023-03-03T17:04:35;10.20;14.40
15105;DHT22;7653;48.994;9.212;2023-03-03T17:10:31;10.00;15.40
15105;DHT22;7653;48.994;9.212;2023-03-03T17:21:30;9.30;17.90
15105;DHT22;7653;48.994;9.212;2023-03-03T17:26:54;9.30;18.40
15105;DHT22;7653;48.994;9.212;2023-03-03T17:40:43;8.70;18.80
15105;DHT22;7653;48.994;9.212;2023-03-03T17:46:32;8.50;19.00
15105;DHT22;7653;48.994;9.212;2023-03-03T17:57:05;8.10;20.50
15105;DHT22;7653;48.994;9.212;2023-03-03T18:04:38;7.60;21.70
15105;DHT22;7653;48.994;9.212;2023-03-03T18:18:02;6.50;24.20
15105;DHT22;7653;48.994;9.212;2023-03-03T18:21:07;6.50;25.30
15105;DHT22;7653;48.994;9.212;2023-03-03T18:23:37;6.60;25.70
15105;DHT22;7653;48.994;9.212;2023-03-03T18:32:16;6.40;26.00
15105;DHT22;7653;48.994;9.212;2023-03-03T18:34:43;6.60;26.20
15105;DHT22;7653;48.994;9.212;2023-03-03T18:37:35;6.70;26.30
15105;DHT22;7653;48.994;9.212;2023-03-03T18:42:48;6.80;26.20
15105;DHT22;7653;48.994;9.212;2023-03-03T18:50:37;6.70;26.60
15105;DHT22;7653;48.994;9.212;2023-03-03T18:53:30;6.20;28.10
15105;DHT22;7653;48.994;9.212;2023-03-03T18:56:00;6.10;28.40
15105;DHT22;7653;48.994;9.212;2023-03-03T18:58:36;6.10;28.80
15105;DHT22;7653;48.994;9.212;2023-03-03T19:04:11;6.10;29.20
15105;DHT22;7653;48.994;9.212;2023-03-03T19:09:10;6.20;28.80
15105;DHT22;7653;48.994;9.212;2023-03-03T19:11:50;6.40;29.00
15105;DHT22;7653;48.994;9.212;2023-03-03T19:16:53;6.40;29.00
15105;DHT22;7653;48.994;9.212;2023-03-03T19:19:22;5.90;29.80
15105;DHT22;7653;48.994;9.212;2023-03-03T19:39:10;6.10;28.80
15105;DHT22;7653;48.994;9.212;2023-03-03T19:46:57;5.50;31.20
15105;DHT22;7653;48.994;9.212;2023-03-03T19:49:53;5.60;31.60
15105;DHT22;7653;48.994;9.212;2023-03-03T19:52:28;5.50;32.80
15105;DHT22;7653;48.994;9.212;2023-03-03T20:00:54;5.40;34.50
15105;DHT22;7653;48.994;9.212;2023-03-03T20:03:32;5.50;34.40
15105;DHT22;7653;48.994;9.212;2023-03-03T20:09:07;5.40;33.90
15105;DHT22;7653;48.994;9.212;2023-03-03T20:12:07;5.10;35.60
15105;DHT22;7653;48.994;9.212;2023-03-03T20:27:50;5.00;36.70
15105;DHT22;7653;48.994;9.212;2023-03-03T20:30:23;5.00;37.40
15105;DHT22;7653;48.994;9.212;2023-03-03T20:36:24;5.00;37.40
15105;DHT22;7653;48.994;9.212;2023-03-03T20:39:01;5.00;37.40
15105;DHT22;7653;48.994;9.212;2023-03-03T20:41:59;5.10;37.00
15105;DHT22;7653;48.994;9.212;2023-03-03T20:57:42;5.00;36.10
15105;DHT22;7653;48.994;9.212;2023-03-03T21:05:26;5.00;35.60
15105;DHT22;7653;48.994;9.212;2023-03-03T21:07:58;5.10;35.60
15105;DHT22;7653;48.994;9.212;2023-03-03T21:10:33;4.90;36.20
15105;DHT22;7653;48.994;9.212;2023-03-03T21:13:38;4.70;36.40
15105;DHT22;7653;48.994;9.212;2023-03-03T21:16:28;4.70;37.20
15105;DHT22;7653;48.994;9.212;2023-03-03T21:19:09;4.60;37.10
15105;DHT22;7653;48.994;9.212;2023-03-03T21:21:41;4.40;38.50
15105;DHT22;7653;48.994;9.212;2023-03-03T21:24:09;4.10;40.50
15105;DHT22;7653;48.994;9.212;2023-03-03T21:29:32;4.30;39.00
15105;DHT22;7653;48.994;9.212;2023-03-03T21:36:53;4.00;42.50
15105;DHT22;7653;48.994;9.212;2023-03-03T21:39:31;3.90;41.70
15105;DHT22;7653;48.994;9.212;2023-03-03T21:46:58;4.10;43.30
15105;DHT22;7653;48.994;9.212;2023-03-03T21:49:24;4.20;42.10
15105;DHT22;7653;48.994;9.212;2023-03-03T21:51:49;4.10;41.80
15105;DHT22;7653;48.994;9.212;2023-03-03T21:54:15;3.90;42.50
15105;DHT22;7653;48.994;9.212;2023-03-03T21:56:41;3.90;42.30
15105;DHT22;7653;48.994;9.212;2023-03-03T21:59:07;3.80;43.00
15105;DHT22;7653;48.994;9.212;2023-03-03T22:01:34;3.70;44.40
15105;DHT22;7653;48.994;9.212;2023-03-03T22:03:59;3.70;44.90
15105;DHT22;7653;48.994;9.212;2023-03-03T22:06:26;3.50;45.90
15105;DHT22;7653;48.994;9.212;2023-03-03T22:08:51;3.40;45.80
15105;DHT22;7653;48.994;9.212;2023-03-03T22:11:17;3.30;48.00
15105;DHT22;7653;48.994;9.212;2023-03-03T22:13:42;3.30;49.10
15105;DHT22;7653;48.994;9.212;2023-03-03T22:16:08;3.30;48.00
15105;DHT22;7653;48.994;9.212;2023-03-03T22:18:34;3.20;45.70
15105;DHT22;7653;48.994;9.212;2023-03-03T22:20:59;3.00;46.00
15105;DHT22;7653;48.994;9.212;2023-03-03T22:23:25;3.00;47.60
15105;DHT22;7653;48.994;9.212;2023-03-03T22:25:51;2.60;46.70
15105;DHT22;7653;48.994;9.212;2023-03-03T22:28:16;2.70;48.10
15105;DHT22;7653;48.994;9.212;2023-03-03T22:30:42;2.50;48.10
15105;DHT22;7653;48.994;9.212;2023-03-03T22:33:07;2.60;48.50
15105;DHT22;7653;48.994;9.212;2023-03-03T22:35:33;2.60;47.30
15105;DHT22;7653;48.994;9.212;2023-03-03T22:38:00;2.60;48.70
15105;DHT22;7653;48.994;9.212;2023-03-03T22:40:25;2.60;48.70
15105;DHT22;7653;48.994;9.212;2023-03-03T22:42:51;2.60;48.80
15105;DHT22;7653;48.994;9.212;2023-03-03T22:45:17;2.60;48.40
15105;DHT22;7653;48.994;9.212;2023-03-03T22:47:42;2.40;48.20
15105;DHT22;7653;48.994;9.212;2023-03-03T22:50:09;2.40;48.30
15105;DHT22;7653;48.994;9.212;2023-03-03T22:52:35;2.30;46.80
15105;DHT22;7653;48.994;9.212;2023-03-03T22:55:00;2.00;47.50
15105;DHT22;7653;48.994;9.212;2023-03-03T22:57:28;2.10;48.10
15105;DHT22;7653;48.994;9.212;2023-03-03T22:59:54;2.10;48.20
15105;DHT22;7653;48.994;9.212;2023-03-03T23:02:20;2.00;48.50
15105;DHT22;7653;48.994;9.212;2023-03-03T23:04:45;1.90;48.00
15105;DHT22;7653;48.994;9.212;2023-03-03T23:07:11;1.90;47.80
15105;DHT22;7653;48.994;9.212;2023-03-03T23:09:36;1.80;48.50
15105;DHT22;7653;48.994;9.212;2023-03-03T23:12:02;1.80;48.60
15105;DHT22;7653;48.994;9.212;2023-03-03T23:14:28;1.90;49.40
15105;DHT22;7653;48.994;9.212;2023-03-03T23:16:53;2.00;50.00
15105;DHT22;7653;48.994;9.212;2023-03-03T23:19:19;2.00;51.20
15105;DHT22;7653;48.994;9.212;2023-03-03T23:21:45;1.90;51.50
15105;DHT22;7653;48.994;9.212;2023-03-03T23:24:10;1.80;53.30
15105;DHT22;7653;48.994;9.212;2023-03-03T23:26:37;1.90;54.10
15105;DHT22;7653;48.994;9.212;2023-03-03T23:29:03;2.00;54.10
15105;DHT22;7653;48.994;9.212;2023-03-03T23:31:29;2.00;54.10
15105;DHT22;7653;48.994;9.212;2023-03-03T23:33:55;1.90;53.70
15105;DHT22;7653;48.994;9.212;2023-03-03T23:36:20;1.90;51.50
15105;DHT22;7653;48.994;9.212;2023-03-03T23:38:46;1.90;51.10
15105;DHT22;7653;48.994;9.212;2023-03-03T23:41:12;1.90;51.30
15105;DHT22;7653;48.994;9.212;2023-03-03T23:43:37;1.90;51.10
15105;DHT22;7653;48.994;9.212;2023-03-03T23:46:03;1.90;51.80
15105;DHT22;7653;48.994;9.212;2023-03-03T23:48:28;1.80;51.50
15105;DHT22;7653;48.994;9.212;2023-03-03T23:50:54;1.80;53.90
15105;DHT22;7653;48.994;9.212;2023-03-03T23:53:20;1.80;54.00
15105;DHT22;7653;48.994;9.212;2023-03-03T23:55:45;1.70;52.90
15105;DHT22;7653;48.994;9.212;2023-03-03T23:58:11;1.70;50.50
